Time;durP1;ratioP1;P1;durP2;ratioP2;P2;SDS_P1;SDS_P2;PMS_P1;PMS_P2;Temp;Humidity;BMP_temperature;BMP_pressure;BME280_temperature;BME280_humidity;BME280_pressure;Samples;Min_cycle;Max_cycle;Signal;HPM_P1;HPM_P2
2022/08/30 00:02:55;;;;;;;8.68;4.93;;;;;;;;;;5040164;28;20582;-60
2022/08/30 00:05:42;;;;;;;5.53;2.75;;;;;;;;;;5049781;28;20811;-59
2022/08/30 00:08:27;;;;;;;4.15;1.80;;;;;;;;;;5051715;28;20072;-59
2022/08/30 00:11:14;;;;;;;4.72;2.13;;;;;;;;;;5052623;28;20044;-61
2022/08/30 00:13:59;;;;;;;3.53;1.45;;;;;;;;;;5052468;28;20037;-59
2022/08/30 00:16:43;;;;;;;3.55;1.65;;;;;;;;;;5042328;28;20087;-59
2022/08/30 00:19:27;;;;;;;3.55;2.08;;;;;;;;;;5038547;28;20033;-59
2022/08/30 00:22:12;;;;;;;3.42;2.08;;;;;;;;;;5047959;28;20033;-58
2022/08/30 00:24:59;;;;;;;4.93;1.90;;;;;;;;;;5047278;28;20183;-58
2022/08/30 00:27:44;;;;;;;3.92;1.77;;;;;;;;;;5040901;28;20026;-59
2022/08/30 00:30:28;;;;;;;3.35;1.67;;;;;;;;;;5045047;28;20744;-59
2022/08/30 00:33:13;;;;;;;4.38;1.73;;;;;;;;;;5047297;28;20044;-59
2022/08/30 00:35:58;;;;;;;3.28;1.67;;;;;;;;;;5049038;28;20041;-59
2022/08/30 00:38:43;;;;;;;4.35;2.08;;;;;;;;;;5050369;28;20033;-60
2022/08/30 00:41:27;;;;;;;4.50;2.00;;;;;;;;;;5049626;28;20171;-60
2022/08/30 00:44:12;;;;;;;4.05;1.60;;;;;;;;;;5049764;28;20029;-60
2022/08/30 00:46:57;;;;;;;4.38;1.65;;;;;;;;;;5037737;28;20566;-59
2022/08/30 00:49:42;;;;;;;3.50;1.73;;;;;;;;;;5047855;28;20052;-59
2022/08/30 00:52:27;;;;;;;4.72;1.60;;;;;;;;;;5046482;28;20404;-61
2022/08/30 00:55:12;;;;;;;3.70;1.70;;;;;;;;;;5048002;28;20080;-60
2022/08/30 00:57:58;;;;;;;4.10;2.08;;;;;;;;;;5047159;28;20041;-60
2022/08/30 01:00:43;;;;;;;5.03;2.00;;;;;;;;;;5052104;28;20442;-59
2022/08/30 01:03:28;;;;;;;4.75;2.10;;;;;;;;;;5053840;28;20087;-59
2022/08/30 01:06:16;;;;;;;4.57;2.17;;;;;;;;;;5047291;28;20053;-59
2022/08/30 01:09:01;;;;;;;6.25;2.25;;;;;;;;;;5051755;28;20461;-59
2022/08/30 01:11:46;;;;;;;4.82;2.50;;;;;;;;;;5043760;28;20124;-59
2022/08/30 01:14:32;;;;;;;4.38;2.17;;;;;;;;;;5040094;28;20038;-59
2022/08/30 01:17:17;;;;;;;5.47;3.28;;;;;;;;;;5037880;28;20056;-60
2022/08/30 01:20:06;;;;;;;6.20;2.33;;;;;;;;;;5033107;28;20642;-59
2022/08/30 01:22:51;;;;;;;5.47;2.92;;;;;;;;;;5032032;28;20366;-59
2022/08/30 01:25:36;;;;;;;3.90;2.72;;;;;;;;;;5049734;28;20120;-60
2022/08/30 01:28:22;;;;;;;5.03;2.60;;;;;;;;;;5050184;28;20139;-60
2022/08/30 01:31:07;;;;;;;4.32;2.63;;;;;;;;;;5052171;28;20076;-60
2022/08/30 01:33:51;;;;;;;3.20;2.33;;;;;;;;;;5041410;28;20048;-64
2022/08/30 01:36:37;;;;;;;5.20;2.65;;;;;;;;;;5051446;28;20045;-59
2022/08/30 01:39:21;;;;;;;5.95;2.78;;;;;;;;;;5034583;28;20034;-59
2022/08/30 01:42:06;;;;;;;5.30;2.92;;;;;;;;;;5046555;28;20105;-60
2022/08/30 01:44:51;;;;;;;4.88;2.35;;;;;;;;;;5042448;28;20041;-61
2022/08/30 01:47:36;;;;;;;6.00;2.53;;;;;;;;;;5032425;28;20080;-59
2022/08/30 01:50:20;;;;;;;5.38;2.70;;;;;;;;;;5033225;28;20061;-59
2022/08/30 01:53:05;;;;;;;5.68;2.60;;;;;;;;;;5020542;28;20117;-60
2022/08/30 01:55:49;;;;;;;3.88;2.30;;;;;;;;;;5035722;28;20045;-59
2022/08/30 01:58:34;;;;;;;4.80;2.47;;;;;;;;;;5038116;28;20041;-60
2022/08/30 02:01:21;;;;;;;5.45;3.30;;;;;;;;;;5049050;28;20040;-60
2022/08/30 02:04:06;;;;;;;5.50;2.40;;;;;;;;;;5027567;28;20073;-61
2022/08/30 02:06:51;;;;;;;4.97;3.15;;;;;;;;;;5031830;28;20040;-59
2022/08/30 02:09:39;;;;;;;3.38;2.35;;;;;;;;;;5035493;28;20140;-60
2022/08/30 02:12:24;;;;;;;5.00;2.80;;;;;;;;;;5051133;28;20044;-59
2022/08/30 02:15:09;;;;;;;4.80;2.50;;;;;;;;;;5050872;28;20098;-60
2022/08/30 02:17:53;;;;;;;4.00;2.38;;;;;;;;;;5045287;28;20045;-59
2022/08/30 02:20:38;;;;;;;5.43;2.45;;;;;;;;;;5041693;28;20131;-59
2022/08/30 02:23:22;;;;;;;5.13;2.90;;;;;;;;;;5032677;28;20038;-59
2022/08/30 02:26:07;;;;;;;4.07;2.55;;;;;;;;;;5038492;28;20068;-60
2022/08/30 02:28:52;;;;;;;5.60;2.60;;;;;;;;;;5032357;28;20481;-60
2022/08/30 02:31:37;;;;;;;5.55;2.83;;;;;;;;;;5035181;28;20432;-58
2022/08/30 02:34:21;;;;;;;4.82;2.60;;;;;;;;;;5031917;28;20041;-59
2022/08/30 02:37:05;;;;;;;5.38;2.95;;;;;;;;;;5031443;28;20059;-58
2022/08/30 02:39:50;;;;;;;6.88;2.97;;;;;;;;;;5047418;28;20045;-59
2022/08/30 02:42:35;;;;;;;8.07;2.97;;;;;;;;;;5040083;28;20037;-58
2022/08/30 02:45:19;;;;;;;4.97;2.90;;;;;;;;;;5042104;28;20080;-59
2022/08/30 02:48:04;;;;;;;5.80;3.28;;;;;;;;;;5045021;28;20116;-58
2022/08/30 02:50:49;;;;;;;4.97;2.90;;;;;;;;;;5038972;28;20476;-59
2022/08/30 02:53:34;;;;;;;5.55;2.80;;;;;;;;;;5050453;28;20044;-59
2022/08/30 02:56:19;;;;;;;4.22;2.83;;;;;;;;;;5049799;28;20037;-60
2022/08/30 02:59:03;;;;;;;5.55;3.38;;;;;;;;;;5050955;28;20041;-59
2022/08/30 03:01:48;;;;;;;7.25;3.08;;;;;;;;;;5050113;28;20036;-59
2022/08/30 03:04:32;;;;;;;4.18;2.90;;;;;;;;;;5043185;28;20046;-60
2022/08/30 03:07:16;;;;;;;4.60;3.10;;;;;;;;;;5046980;28;20048;-60
2022/08/30 03:10:01;;;;;;;6.78;3.00;;;;;;;;;;5041539;28;20465;-59
2022/08/30 03:12:46;;;;;;;5.75;2.97;;;;;;;;;;5034555;28;20388;-59
2022/08/30 03:15:31;;;;;;;4.72;2.90;;;;;;;;;;5036678;28;20045;-59
2022/08/30 03:18:16;;;;;;;4.68;3.08;;;;;;;;;;5032329;28;20045;-61
2022/08/30 03:21:00;;;;;;;5.45;3.25;;;;;;;;;;5032387;28;20385;-59
2022/08/30 03:23:44;;;;;;;4.40;3.03;;;;;;;;;;5042184;28;20427;-59
2022/08/30 03:26:29;;;;;;;5.47;3.38;;;;;;;;;;5037086;28;20033;-58
2022/08/30 03:29:13;;;;;;;5.03;3.25;;;;;;;;;;5040150;28;20033;-59
2022/08/30 03:31:57;;;;;;;3.75;2.95;;;;;;;;;;5043596;28;20128;-60
2022/08/30 03:34:41;;;;;;;4.90;3.58;;;;;;;;;;5041609;28;20044;-59
2022/08/30 03:37:26;;;;;;;5.95;2.78;;;;;;;;;;5043584;28;20037;-59
2022/08/30 03:40:12;;;;;;;6.45;3.45;;;;;;;;;;5040427;28;20045;-59
2022/08/30 03:42:56;;;;;;;6.07;3.78;;;;;;;;;;5043888;28;20154;-59
2022/08/30 03:45:40;;;;;;;4.90;2.67;;;;;;;;;;5047421;28;20040;-59
2022/08/30 03:48:27;;;;;;;5.72;3.13;;;;;;;;;;5050799;28;20040;-59
2022/08/30 03:51:11;;;;;;;4.72;2.75;;;;;;;;;;5047042;28;20386;-60
2022/08/30 03:53:56;;;;;;;5.40;2.60;;;;;;;;;;5048068;28;20068;-59
2022/08/30 03:56:40;;;;;;;5.97;3.25;;;;;;;;;;5049330;28;20047;-59
2022/08/30 03:59:24;;;;;;;6.07;3.47;;;;;;;;;;5050284;28;20136;-59
2022/08/30 04:02:09;;;;;;;5.97;3.75;;;;;;;;;;5038413;28;20045;-60
2022/08/30 04:04:53;;;;;;;8.52;3.70;;;;;;;;;;5045486;28;20112;-60
2022/08/30 04:07:38;;;;;;;5.00;3.05;;;;;;;;;;5047975;28;20494;-60
2022/08/30 04:10:23;;;;;;;5.10;3.33;;;;;;;;;;5046472;28;20449;-60
2022/08/30 04:13:07;;;;;;;3.63;2.63;;;;;;;;;;5040561;28;20029;-58
2022/08/30 04:15:52;;;;;;;6.40;2.90;;;;;;;;;;5042990;28;20056;-58
2022/08/30 04:18:36;;;;;;;5.43;3.25;;;;;;;;;;5042527;28;20389;-59
2022/08/30 04:21:21;;;;;;;5.15;3.38;;;;;;;;;;5045890;28;20392;-60
2022/08/30 04:24:05;;;;;;;5.45;2.92;;;;;;;;;;5045246;28;20048;-59
2022/08/30 04:26:50;;;;;;;6.32;2.83;;;;;;;;;;5047425;28;20064;-60
2022/08/30 04:29:34;;;;;;;5.28;3.20;;;;;;;;;;5041874;28;20041;-59
2022/08/30 04:32:19;;;;;;;7.35;3.47;;;;;;;;;;5033140;28;20479;-59
2022/08/30 04:35:05;;;;;;;6.28;3.35;;;;;;;;;;5038101;28;20052;-58
2022/08/30 04:37:50;;;;;;;4.97;3.00;;;;;;;;;;5045470;28;20103;-60
2022/08/30 04:40:34;;;;;;;6.63;3.47;;;;;;;;;;5050289;28;20566;-60
2022/08/30 04:43:18;;;;;;;5.43;3.20;;;;;;;;;;5047468;28;20413;-60
2022/08/30 04:46:05;;;;;;;5.05;2.70;;;;;;;;;;5046591;28;20041;-60
2022/08/30 04:48:49;;;;;;;4.75;3.47;;;;;;;;;;5048876;28;20455;-59
2022/08/30 04:51:33;;;;;;;6.43;3.47;;;;;;;;;;5046525;28;20364;-59
2022/08/30 04:54:18;;;;;;;6.35;4.18;;;;;;;;;;5054615;28;20136;-59
2022/08/30 04:57:02;;;;;;;4.82;3.05;;;;;;;;;;5047299;28;20412;-59
2022/08/30 04:59:46;;;;;;;7.72;3.83;;;;;;;;;;5048500;28;20040;-59
2022/08/30 05:02:31;;;;;;;6.20;3.67;;;;;;;;;;5045774;28;20028;-59
2022/08/30 05:08:19;;;;;;;6.10;3.83;;;;;;;;;;5049169;28;20037;-59
2022/08/30 05:11:08;;;;;;;6.05;3.75;;;;;;;;;;5052566;28;20150;-59
2022/08/30 05:13:52;;;;;;;6.47;3.25;;;;;;;;;;5041453;28;20043;-59
2022/08/30 05:16:37;;;;;;;7.18;3.30;;;;;;;;;;5044007;28;20524;-59
2022/08/30 05:19:22;;;;;;;5.65;3.58;;;;;;;;;;5044882;28;20037;-60
2022/08/30 05:22:07;;;;;;;5.68;3.20;;;;;;;;;;5041984;28;20116;-60
2022/08/30 05:24:52;;;;;;;8.25;3.33;;;;;;;;;;5043183;28;20040;-59
2022/08/30 05:27:36;;;;;;;5.50;3.60;;;;;;;;;;5045955;28;20067;-59
2022/08/30 05:30:21;;;;;;;5.03;2.80;;;;;;;;;;5046435;28;20041;-59
2022/08/30 05:33:06;;;;;;;5.15;2.85;;;;;;;;;;5034165;28;20036;-52
2022/08/30 05:35:50;;;;;;;5.93;2.50;;;;;;;;;;5043708;28;20395;-53
2022/08/30 05:38:35;;;;;;;5.28;3.30;;;;;;;;;;5042066;28;20051;-48
2022/08/30 05:41:20;;;;;;;7.97;3.38;;;;;;;;;;5045756;28;20048;-51
2022/08/30 05:44:06;;;;;;;3.75;2.53;;;;;;;;;;5043405;28;20105;-49
2022/08/30 05:46:50;;;;;;;5.80;2.85;;;;;;;;;;5035132;28;20048;-55
2022/08/30 05:49:35;;;;;;;6.68;2.80;;;;;;;;;;5039316;28;20131;-51
2022/08/30 05:52:19;;;;;;;5.20;2.83;;;;;;;;;;5035509;28;20040;-52
2022/08/30 05:55:06;;;;;;;10.13;2.80;;;;;;;;;;5037527;28;20114;-52
2022/08/30 05:57:50;;;;;;;5.93;2.78;;;;;;;;;;5034883;28;20045;-48
2022/08/30 06:00:36;;;;;;;4.95;2.78;;;;;;;;;;5033828;28;20040;-50
2022/08/30 06:03:21;;;;;;;5.30;2.42;;;;;;;;;;5049667;28;20546;-49
2022/08/30 06:06:06;;;;;;;5.50;3.40;;;;;;;;;;5045294;28;20443;-49
2022/08/30 06:08:50;;;;;;;6.13;3.10;;;;;;;;;;5040882;28;20042;-48
2022/08/30 06:11:35;;;;;;;5.78;3.30;;;;;;;;;;5048533;28;20098;-48
2022/08/30 06:14:20;;;;;;;6.10;3.22;;;;;;;;;;5047624;28;20037;-50
2022/08/30 06:17:05;;;;;;;8.57;2.75;;;;;;;;;;5036703;28;20056;-48
2022/08/30 06:19:49;;;;;;;6.30;2.80;;;;;;;;;;5041148;28;20048;-47
2022/08/30 06:22:34;;;;;;;5.20;3.08;;;;;;;;;;5038715;28;20059;-60
2022/08/30 06:25:18;;;;;;;6.75;3.15;;;;;;;;;;5041535;28;20114;-60
2022/08/30 06:28:04;;;;;;;4.40;2.38;;;;;;;;;;5050962;28;20037;-60
2022/08/30 06:30:48;;;;;;;5.30;3.05;;;;;;;;;;5038780;28;20694;-59
2022/08/30 06:33:33;;;;;;;5.53;2.67;;;;;;;;;;5050643;28;20427;-59
2022/08/30 06:36:19;;;;;;;3.78;2.42;;;;;;;;;;5059969;28;20107;-60
2022/08/30 06:39:04;;;;;;;7.03;3.05;;;;;;;;;;5038121;28;20235;-60
2022/08/30 06:41:49;;;;;;;5.80;3.00;;;;;;;;;;5051227;28;20380;-60
2022/08/30 06:44:44;;;;;;;6.90;3.08;;;;;;;;;;5040300;28;20037;-59
2022/08/30 06:47:28;;;;;;;6.18;2.83;;;;;;;;;;5037692;28;20060;-60
2022/08/30 06:50:16;;;;;;;7.70;3.03;;;;;;;;;;5041712;28;20049;-58
2022/08/30 06:53:04;;;;;;;7.07;3.60;;;;;;;;;;5050883;28;20052;-59
2022/08/30 06:55:58;;;;;;;5.88;3.30;;;;;;;;;;5039698;28;20080;-59
2022/08/30 06:58:43;;;;;;;5.40;3.00;;;;;;;;;;5045700;28;20033;-57
2022/08/30 07:01:28;;;;;;;4.88;2.90;;;;;;;;;;5045462;28;20039;-58
2022/08/30 07:04:12;;;;;;;6.57;3.15;;;;;;;;;;5043160;28;20056;-58
2022/08/30 07:06:57;;;;;;;5.35;3.00;;;;;;;;;;5045626;28;20060;-58
2022/08/30 07:09:43;;;;;;;5.20;2.80;;;;;;;;;;5047883;28;20033;-58
2022/08/30 07:12:27;;;;;;;7.95;3.25;;;;;;;;;;5040326;28;20076;-59
2022/08/30 07:15:12;;;;;;;7.38;2.80;;;;;;;;;;5042298;28;20037;-60
2022/08/30 07:21:14;;;;;;;8.18;3.20;;;;;;;;;;5048947;28;20392;-60
2022/08/30 07:23:59;;;;;;;4.80;2.75;;;;;;;;;;5045805;28;20041;-59
2022/08/30 07:26:47;;;;;;;5.65;2.90;;;;;;;;;;5037791;28;20476;-59
2022/08/30 07:29:32;;;;;;;7.18;3.20;;;;;;;;;;5043584;28;20486;-58
2022/08/30 07:32:16;;;;;;;5.13;2.78;;;;;;;;;;5045931;28;20063;-56
2022/08/30 07:35:01;;;;;;;6.57;3.05;;;;;;;;;;5039080;28;20045;-58
2022/08/30 07:37:45;;;;;;;6.82;3.33;;;;;;;;;;5045739;28;20041;-59
2022/08/30 07:40:30;;;;;;;6.93;3.42;;;;;;;;;;5059092;28;20120;-60
2022/08/30 07:43:14;;;;;;;4.20;2.55;;;;;;;;;;5050363;28;20041;-60
2022/08/30 07:46:05;;;;;;;6.18;2.75;;;;;;;;;;5040625;28;20060;-59
2022/08/30 07:48:50;;;;;;;8.27;2.97;;;;;;;;;;5032776;28;20048;-59
2022/08/30 07:51:35;;;;;;;5.28;2.70;;;;;;;;;;5033812;28;20111;-58
2022/08/30 07:54:20;;;;;;;4.03;2.83;;;;;;;;;;5046810;28;20033;-60
2022/08/30 07:57:07;;;;;;;6.13;2.58;;;;;;;;;;5046723;28;20045;-57
2022/08/30 07:59:52;;;;;;;4.40;2.55;;;;;;;;;;5041245;28;20041;-56
2022/08/30 08:02:39;;;;;;;6.55;2.25;;;;;;;;;;5049753;28;20435;-59
2022/08/30 08:05:23;;;;;;;8.30;2.67;;;;;;;;;;5040613;28;20048;-59
2022/08/30 08:08:08;;;;;;;6.43;2.50;;;;;;;;;;5047636;28;20060;-58
2022/08/30 08:10:52;;;;;;;3.70;2.00;;;;;;;;;;5048586;28;20060;-58
2022/08/30 08:13:37;;;;;;;3.28;1.42;;;;;;;;;;5036318;28;20456;-59
2022/08/30 08:16:24;;;;;;;4.68;2.00;;;;;;;;;;5051711;28;20044;-59
2022/08/30 08:19:09;;;;;;;4.75;2.15;;;;;;;;;;5040366;28;20040;-55
2022/08/30 08:21:55;;;;;;;4.70;2.00;;;;;;;;;;5042973;28;20060;-58
2022/08/30 08:24:40;;;;;;;4.85;2.22;;;;;;;;;;5057603;28;20037;-59
2022/08/30 08:27:24;;;;;;;7.10;2.10;;;;;;;;;;5050328;28;20061;-59
2022/08/30 08:30:09;;;;;;;2.83;1.77;;;;;;;;;;5041408;28;20075;-58
2022/08/30 08:32:55;;;;;;;5.43;2.42;;;;;;;;;;5049824;28;20036;-59
2022/08/30 08:35:40;;;;;;;5.57;2.17;;;;;;;;;;5041123;28;20044;-61
2022/08/30 08:38:25;;;;;;;3.45;2.10;;;;;;;;;;5040021;28;20080;-60
2022/08/30 08:41:16;;;;;;;5.78;2.42;;;;;;;;;;5052109;28;20364;-63
2022/08/30 08:44:00;;;;;;;;;;;;;;;;;;5053661;28;20039;-61
2022/08/30 08:46:53;;;;;;;6.32;2.90;;;;;;;;;;5045131;28;19982;-62
2022/08/30 08:49:38;;;;;;;5.35;2.25;;;;;;;;;;5053302;28;20045;-64
2022/08/30 08:55:43;;;;;;;3.42;1.75;;;;;;;;;;5043221;28;20401;-61
2022/08/30 08:58:29;;;;;;;4.40;2.40;;;;;;;;;;5051471;28;20498;-62
2022/08/30 09:01:16;;;;;;;4.38;1.90;;;;;;;;;;5048920;28;20041;-65
2022/08/30 09:04:04;;;;;;;4.32;2.08;;;;;;;;;;5043194;28;20047;-59
2022/08/30 09:06:53;;;;;;;4.65;2.17;;;;;;;;;;5039135;28;20048;-57
2022/08/30 09:09:39;;;;;;;4.67;2.50;;;;;;;;;;5042957;28;20647;-59
2022/08/30 09:12:24;;;;;;;3.03;1.90;;;;;;;;;;5037399;28;20048;-61
2022/08/30 09:15:14;;;;;;;3.60;1.88;;;;;;;;;;5052220;28;20480;-59
2022/08/30 09:18:01;;;;;;;4.47;2.00;;;;;;;;;;5048990;28;20049;-60
2022/08/30 09:20:47;;;;;;;6.13;2.00;;;;;;;;;;5046832;28;20504;-60
2022/08/30 09:23:32;;;;;;;5.47;2.40;;;;;;;;;;5065734;28;20124;-59
2022/08/30 09:26:26;;;;;;;4.15;2.08;;;;;;;;;;5043052;28;20132;-61
2022/08/30 09:29:15;;;;;;;5.25;1.80;;;;;;;;;;5047774;28;20458;-59
2022/08/30 09:32:00;;;;;;;3.80;2.10;;;;;;;;;;5048636;28;20068;-58
2022/08/30 09:34:46;;;;;;;5.05;2.15;;;;;;;;;;5048980;28;20049;-60
2022/08/30 09:37:45;;;;;;;2.45;1.65;;;;;;;;;;5035176;28;20065;-60
2022/08/30 09:40:38;;;;;;;8.80;2.50;;;;;;;;;;5045376;28;20049;-60
2022/08/30 09:43:27;;;;;;;5.22;2.17;;;;;;;;;;5046577;28;20048;-59
2022/08/30 09:46:12;;;;;;;4.30;2.07;;;;;;;;;;5045702;28;20396;-60
2022/08/30 09:48:56;;;;;;;4.43;1.50;;;;;;;;;;5039964;28;20048;-60
2022/08/30 09:51:49;;;;;;;4.28;2.05;;;;;;;;;;5045172;28;20045;-61
2022/08/30 09:54:57;;;;;;;5.65;1.95;;;;;;;;;;5043096;28;20384;-62
2022/08/30 09:57:41;;;;;;;3.92;1.40;;;;;;;;;;5037396;28;20049;-61
2022/08/30 10:00:27;;;;;;;5.03;1.63;;;;;;;;;;5036861;28;20128;-60
2022/08/30 10:03:22;;;;;;;3.15;1.70;;;;;;;;;;5041035;28;20088;-61
2022/08/30 10:06:09;;;;;;;3.70;1.83;;;;;;;;;;5041359;28;20053;-60
2022/08/30 10:08:56;;;;;;;8.48;2.10;;;;;;;;;;5043055;28;20036;-62
2022/08/30 10:11:41;;;;;;;3.33;1.95;;;;;;;;;;5036309;28;20085;-60
2022/08/30 10:14:25;;;;;;;3.00;1.73;;;;;;;;;;5040981;28;20790;-61
2022/08/30 10:17:19;;;;;;;4.07;2.05;;;;;;;;;;5042928;28;20045;-62
2022/08/30 10:20:09;;;;;;;3.53;2.00;;;;;;;;;;5046501;28;20046;-62
2022/08/30 10:23:08;;;;;;;3.10;1.70;;;;;;;;;;5049108;28;20163;-63
2022/08/30 10:26:13;;;;;;;4.50;2.50;;;;;;;;;;5072822;28;20071;-63
2022/08/30 10:28:58;;;;;;;6.40;1.90;;;;;;;;;;5041317;28;20124;-60
2022/08/30 10:31:48;;;;;;;4.70;1.70;;;;;;;;;;5044275;28;20060;-59
2022/08/30 10:34:48;;;;;;;2.83;1.40;;;;;;;;;;5037929;28;20549;-60
2022/08/30 10:37:36;;;;;;;5.88;1.42;;;;;;;;;;5029880;28;20080;-60
2022/08/30 10:43:40;;;;;;;5.68;1.38;;;;;;;;;;5043138;28;20044;-60
2022/08/30 10:46:31;;;;;;;4.20;1.60;;;;;;;;;;5040684;28;20476;-50
2022/08/30 10:49:21;;;;;;;2.40;1.50;;;;;;;;;;5033482;28;20041;-63
2022/08/30 10:52:25;;;;;;;3.83;1.30;;;;;;;;;;5043666;28;20128;-61
2022/08/30 10:55:23;;;;;;;3.42;1.33;;;;;;;;;;5044000;28;20042;-61
2022/08/30 10:58:08;;;;;;;5.30;1.60;;;;;;;;;;5074078;28;20072;-60
2022/08/30 11:00:57;;;;;;;6.15;1.40;;;;;;;;;;5041696;28;20068;-61
2022/08/30 11:03:54;;;;;;;3.20;1.47;;;;;;;;;;5040360;28;20063;-61
2022/08/30 11:06:38;;;;;;;3.00;1.27;;;;;;;;;;5048587;28;20037;-64
2022/08/30 11:09:42;;;;;;;3.58;1.27;;;;;;;;;;5048856;28;20103;-60
2022/08/30 11:12:26;;;;;;;4.75;1.23;;;;;;;;;;5045624;28;20033;-59
2022/08/30 11:15:21;;;;;;;2.83;0.80;;;;;;;;;;5051216;28;20036;-62
2022/08/30 11:18:09;;;;;;;1.98;0.98;;;;;;;;;;5053679;28;20053;-63
2022/08/30 11:21:13;;;;;;;3.22;1.08;;;;;;;;;;5048674;28;20033;-61
2022/08/30 11:24:19;;;;;;;2.67;1.08;;;;;;;;;;5041864;28;20354;-60
2022/08/30 11:27:04;;;;;;;1.73;0.80;;;;;;;;;;5041301;28;20061;-61
2022/08/30 11:29:49;;;;;;;4.18;1.35;;;;;;;;;;5071102;28;20033;-60
2022/08/30 11:32:52;;;;;;;3.65;1.15;;;;;;;;;;5043365;28;20052;-62
2022/08/30 11:35:41;;;;;;;4.10;0.95;;;;;;;;;;5045051;28;20053;-62
2022/08/30 11:38:28;;;;;;;2.88;1.33;;;;;;;;;;5046268;28;20067;-60
2022/08/30 11:41:28;;;;;;;2.80;0.80;;;;;;;;;;5049976;28;20054;-61
2022/08/30 11:44:22;;;;;;;3.15;0.90;;;;;;;;;;5045296;28;20063;-60
2022/08/30 11:47:24;;;;;;;1.73;1.00;;;;;;;;;;5045521;28;20049;-63
2022/08/30 11:50:32;;;;;;;4.85;1.10;;;;;;;;;;5038321;28;20049;-64
2022/08/30 11:53:27;;;;;;;1.65;0.60;;;;;;;;;;5046621;28;20582;-63
2022/08/30 11:56:28;;;;;;;2.08;1.10;;;;;;;;;;5049532;28;20033;-63
2022/08/30 11:59:24;;;;;;;4.15;0.88;;;;;;;;;;5050379;28;20700;-62
2022/08/30 12:02:29;;;;;;;2.92;1.15;;;;;;;;;;5046136;28;20041;-62
2022/08/30 12:05:32;;;;;;;2.30;0.82;;;;;;;;;;5046493;28;20063;-60
2022/08/30 12:08:19;;;;;;;2.40;1.15;;;;;;;;;;5042596;28;20046;-60
2022/08/30 12:11:07;;;;;;;2.40;0.98;;;;;;;;;;5038885;28;20147;-61
2022/08/30 12:13:54;;;;;;;4.30;0.90;;;;;;;;;;5042856;28;20466;-61
2022/08/30 12:19:49;;;;;;;2.17;0.90;;;;;;;;;;5041160;28;20106;-63
2022/08/30 12:22:36;;;;;;;2.88;0.93;;;;;;;;;;5048533;28;20037;-61
2022/08/30 12:25:29;;;;;;;1.50;0.73;;;;;;;;;;5041237;28;20038;-62
2022/08/30 12:28:24;;;;;;;2.00;0.70;;;;;;;;;;5043910;28;20116;-60
2022/08/30 12:31:10;;;;;;;3.38;1.02;;;;;;;;;;5049341;28;20039;-62
2022/08/30 12:33:58;;;;;;;2.33;0.88;;;;;;;;;;5048618;28;20496;-62
2022/08/30 12:36:49;;;;;;;1.67;0.90;;;;;;;;;;5051067;28;20076;-64
2022/08/30 12:39:35;;;;;;;1.02;0.70;;;;;;;;;;5040287;28;20116;-59
2022/08/30 12:42:21;;;;;;;2.20;0.82;;;;;;;;;;5049721;28;20484;-63
2022/08/30 12:45:10;;;;;;;3.55;0.98;;;;;;;;;;5043443;28;20045;-61
2022/08/30 12:48:15;;;;;;;3.25;1.00;;;;;;;;;;5059077;28;20083;-61
2022/08/30 12:51:00;;;;;;;3.22;1.20;;;;;;;;;;5047312;28;20040;-62
2022/08/30 12:53:45;;;;;;;3.70;1.20;;;;;;;;;;5041504;28;20112;-61
2022/08/30 12:56:49;;;;;;;2.15;1.08;;;;;;;;;;5040175;28;20045;-62
2022/08/30 12:59:47;;;;;;;2.10;1.15;;;;;;;;;;5040089;28;20061;-64
2022/08/30 13:03:01;;;;;;;1.92;0.90;;;;;;;;;;5040619;28;20104;-63
2022/08/30 13:05:46;;;;;;;1.65;1.00;;;;;;;;;;5030111;28;20064;-62
2022/08/30 13:08:33;;;;;;;2.42;0.95;;;;;;;;;;5038380;28;20068;-60
2022/08/30 13:11:21;;;;;;;1.95;0.98;;;;;;;;;;5049464;28;20064;-61
2022/08/30 13:14:37;;;;;;;4.53;1.00;;;;;;;;;;5047436;28;20045;-62
2022/08/30 13:17:23;;;;;;;3.65;1.10;;;;;;;;;;5011732;28;20074;-63
2022/08/30 13:20:11;;;;;;;3.13;0.88;;;;;;;;;;5053545;28;20064;-62
2022/08/30 13:23:00;;;;;;;2.97;0.90;;;;;;;;;;5049759;28;20068;-62
2022/08/30 13:25:45;;;;;;;1.98;0.77;;;;;;;;;;5039197;28;20073;-59
2022/08/30 13:28:29;;;;;;;1.80;0.93;;;;;;;;;;5051747;28;20049;-64
2022/08/30 13:31:14;;;;;;;2.25;0.90;;;;;;;;;;5050494;28;20048;-63
2022/08/30 13:33:58;;;;;;;2.20;0.85;;;;;;;;;;5045875;28;20116;-60
2022/08/30 13:36:48;;;;;;;3.83;1.10;;;;;;;;;;5047910;28;20369;-64
2022/08/30 13:39:32;;;;;;;2.47;1.05;;;;;;;;;;5048538;28;20040;-62
2022/08/30 13:42:17;;;;;;;2.45;0.90;;;;;;;;;;5051015;28;20056;-60
2022/08/30 13:45:01;;;;;;;3.50;1.05;;;;;;;;;;5045793;28;20037;-62
2022/08/30 13:47:47;;;;;;;2.70;1.27;;;;;;;;;;5049246;28;20137;-65
2022/08/30 13:50:31;;;;;;;4.18;0.98;;;;;;;;;;5046088;28;20187;-49
2022/08/30 13:53:15;;;;;;;3.78;1.20;;;;;;;;;;5050304;28;20090;-63
2022/08/30 13:56:00;;;;;;;4.30;0.90;;;;;;;;;;5039284;28;20176;-60
2022/08/30 13:58:45;;;;;;;3.53;1.17;;;;;;;;;;5049200;28;20045;-50
2022/08/30 14:01:30;;;;;;;2.17;0.80;;;;;;;;;;5052616;28;20469;-57
2022/08/30 14:04:14;;;;;;;2.65;1.20;;;;;;;;;;5050862;28;20537;-58
2022/08/30 14:06:59;;;;;;;2.35;0.75;;;;;;;;;;5051895;28;20361;-58
2022/08/30 14:09:43;;;;;;;2.17;1.00;;;;;;;;;;5048047;28;20431;-44
2022/08/30 14:12:28;;;;;;;2.45;0.75;;;;;;;;;;5043921;28;20045;-52
2022/08/30 14:15:12;;;;;;;1.80;0.77;;;;;;;;;;5050704;28;20033;-50
2022/08/30 14:17:58;;;;;;;1.90;1.02;;;;;;;;;;5047476;28;20044;-54
2022/08/30 14:20:42;;;;;;;4.15;1.00;;;;;;;;;;5047124;28;20094;-54
2022/08/30 14:23:27;;;;;;;3.63;1.23;;;;;;;;;;5047722;28;20036;-55
2022/08/30 14:26:20;;;;;;;2.78;1.10;;;;;;;;;;5043618;28;20040;-53
2022/08/30 14:29:07;;;;;;;3.35;1.10;;;;;;;;;;5044193;28;20036;-53
2022/08/30 14:31:52;;;;;;;1.77;0.90;;;;;;;;;;5045966;28;20048;-49
2022/08/30 14:34:36;;;;;;;2.67;0.80;;;;;;;;;;5046344;28;20384;-49
2022/08/30 14:37:21;;;;;;;2.80;1.10;;;;;;;;;;5045041;28;20523;-52
2022/08/30 14:40:05;;;;;;;2.65;0.90;;;;;;;;;;5041592;28;20047;-56
2022/08/30 14:42:50;;;;;;;2.78;0.80;;;;;;;;;;5049420;28;20083;-60
2022/08/30 14:45:36;;;;;;;1.88;0.77;;;;;;;;;;5036460;28;20107;-59
2022/08/30 14:48:21;;;;;;;2.95;0.70;;;;;;;;;;5052293;28;20102;-55
2022/08/30 14:51:12;;;;;;;2.08;0.70;;;;;;;;;;5038178;28;20072;-57
2022/08/30 14:53:57;;;;;;;1.33;0.70;;;;;;;;;;5074393;28;20037;-59
2022/08/30 14:56:41;;;;;;;4.57;1.00;;;;;;;;;;5040934;28;20061;-57
2022/08/30 14:59:26;;;;;;;2.08;0.80;;;;;;;;;;5037250;28;20203;-59
2022/08/30 15:02:10;;;;;;;2.13;0.90;;;;;;;;;;5045672;28;20036;-59
2022/08/30 15:04:54;;;;;;;3.17;0.90;;;;;;;;;;5039828;28;20041;-59
2022/08/30 15:07:39;;;;;;;1.95;0.75;;;;;;;;;;5032877;28;20048;-59
2022/08/30 15:10:23;;;;;;;2.35;0.70;;;;;;;;;;5035214;28;20120;-59
2022/08/30 15:13:08;;;;;;;2.20;0.73;;;;;;;;;;5045221;28;20053;-59
2022/08/30 15:15:52;;;;;;;3.38;0.98;;;;;;;;;;5051362;28;20036;-58
2022/08/30 15:18:37;;;;;;;2.20;0.70;;;;;;;;;;5035785;28;20441;-59
2022/08/30 15:21:26;;;;;;;2.58;0.80;;;;;;;;;;5045333;28;20060;-59
2022/08/30 15:24:13;;;;;;;2.30;0.63;;;;;;;;;;5050297;28;20041;-59
2022/08/30 15:26:58;;;;;;;1.33;0.80;;;;;;;;;;5044090;28;20080;-59
2022/08/30 15:29:43;;;;;;;1.73;0.65;;;;;;;;;;5049157;28;20049;-59
2022/08/30 15:32:27;;;;;;;1.73;0.90;;;;;;;;;;5044114;28;20254;-59
2022/08/30 15:35:12;;;;;;;2.25;0.63;;;;;;;;;;5043650;28;20072;-58
2022/08/30 15:37:56;;;;;;;3.20;0.80;;;;;;;;;;5039034;28;20029;-59
2022/08/30 15:40:41;;;;;;;2.80;0.90;;;;;;;;;;5043160;28;20445;-59
2022/08/30 15:43:25;;;;;;;2.33;0.77;;;;;;;;;;5074290;28;20033;-58
2022/08/30 15:46:15;;;;;;;2.42;0.95;;;;;;;;;;5042589;28;20048;-58
2022/08/30 15:49:05;;;;;;;1.83;0.88;;;;;;;;;;5038957;28;20064;-59
2022/08/30 15:51:50;;;;;;;3.28;0.93;;;;;;;;;;5039770;28;21416;-61
2022/08/30 15:54:35;;;;;;;3.35;1.00;;;;;;;;;;5037832;28;20037;-59
2022/08/30 15:57:19;;;;;;;3.20;1.02;;;;;;;;;;5041619;28;20182;-59
2022/08/30 16:00:04;;;;;;;3.70;0.90;;;;;;;;;;5042170;28;20468;-58
2022/08/30 16:02:50;;;;;;;2.17;1.15;;;;;;;;;;5033750;28;20072;-58
2022/08/30 16:05:34;;;;;;;2.35;0.70;;;;;;;;;;5047554;28;20357;-59
2022/08/30 16:08:19;;;;;;;3.75;0.95;;;;;;;;;;5039895;28;20488;-59
2022/08/30 16:11:07;;;;;;;4.13;1.20;;;;;;;;;;5054343;28;20431;-60
2022/08/30 16:13:52;;;;;;;2.15;1.30;;;;;;;;;;5043073;28;20119;-59
2022/08/30 16:16:36;;;;;;;5.10;0.82;;;;;;;;;;5041971;28;20042;-59
2022/08/30 16:19:21;;;;;;;2.63;0.93;;;;;;;;;;5046462;28;20122;-59
2022/08/30 16:22:07;;;;;;;1.75;0.82;;;;;;;;;;5049412;28;20052;-59
2022/08/30 16:24:52;;;;;;;2.83;0.80;;;;;;;;;;5044998;28;20083;-59
2022/08/30 16:27:41;;;;;;;3.15;1.27;;;;;;;;;;5041363;28;20061;-59
2022/08/30 16:30:26;;;;;;;2.25;0.93;;;;;;;;;;5043664;28;20044;-59
2022/08/30 16:33:10;;;;;;;1.90;0.90;;;;;;;;;;5034418;28;20107;-59
2022/08/30 16:35:56;;;;;;;1.65;0.90;;;;;;;;;;5034038;28;20037;-59
2022/08/30 16:38:40;;;;;;;2.70;0.95;;;;;;;;;;5035616;28;20049;-60
2022/08/30 16:41:25;;;;;;;4.13;0.90;;;;;;;;;;5038745;28;20459;-62
2022/08/30 16:44:09;;;;;;;3.17;0.98;;;;;;;;;;5042044;28;20036;-60
2022/08/30 16:46:54;;;;;;;2.20;0.93;;;;;;;;;;5042158;28;20120;-60
2022/08/30 16:49:38;;;;;;;3.40;0.90;;;;;;;;;;5044353;28;20040;-59
2022/08/30 16:52:23;;;;;;;3.05;1.20;;;;;;;;;;5046871;28;20150;-59
2022/08/30 16:55:07;;;;;;;4.35;1.20;;;;;;;;;;5043496;28;20127;-59
2022/08/30 16:57:52;;;;;;;4.90;1.23;;;;;;;;;;5049326;28;20373;-60